createdAt,value
2018-09-02T00:00:04.356Z,93.83
2018-09-02T00:02:33.336Z,94.19
2018-09-02T00:05:02.476Z,94.88
2018-09-02T00:07:31.554Z,96.14
2018-09-02T00:10:00.503Z,96.39
2018-09-02T00:12:29.456Z,96.55
2018-09-02T00:14:58.433Z,96.42
2018-09-02T00:17:27.383Z,96.13
2018-09-02T00:19:56.354Z,96.84
2018-09-02T00:23:28.493Z,97.56
2018-09-02T00:25:57.463Z,97.06
2018-09-02T00:28:26.420Z,95.91
2018-09-02T00:30:55.427Z,96.32
2018-09-02T00:33:24.408Z,95.08
2018-09-02T00:35:53.365Z,94.83
2018-09-02T00:38:22.328Z,93.69
2018-09-02T00:40:51.275Z,93.46
2018-09-02T00:43:20.233Z,93.97
2018-09-02T00:45:49.218Z,93.44
2018-09-02T00:48:18.203Z,95.79
2018-09-02T00:50:47.160Z,95.04
2018-09-02T00:53:16.120Z,94.43
2018-09-02T00:55:45.084Z,94.89
2018-09-02T00:58:14.040Z,95.11
2018-09-02T01:00:43.005Z,98.04
2018-09-02T01:03:12.003Z,98.12
2018-09-02T01:05:41.011Z,98.55
2018-09-02T01:08:09.959Z,99.34
2018-09-02T01:10:38.908Z,99.36
2018-09-02T01:13:07.904Z,99.34
2018-09-02T01:15:36.850Z,99.22
2018-09-02T01:18:05.816Z,100.00
2018-09-02T01:20:34.816Z,100.00
2018-09-02T01:23:03.925Z,100.00
2018-09-02T01:25:32.816Z,100.00
2018-09-02T01:28:01.852Z,100.00
2018-09-02T01:30:30.825Z,100.00
2018-09-02T01:32:59.821Z,100.00
2018-09-02T01:35:32.641Z,100.00
2018-09-02T01:38:03.144Z,99.19
2018-09-02T01:40:32.741Z,100.00
2018-09-02T01:43:01.803Z,100.00
2018-09-02T01:45:30.822Z,100.00
2018-09-02T01:47:59.791Z,99.18
2018-09-02T01:50:28.821Z,99.12
2018-09-02T01:52:57.809Z,99.29
2018-09-02T01:55:26.841Z,98.97
2018-09-02T01:57:55.957Z,99.21
2018-09-02T02:00:24.912Z,99.15
2018-09-02T02:02:53.870Z,99.19
2018-09-02T02:05:22.839Z,98.84
2018-09-02T02:07:51.931Z,98.29
2018-09-02T02:10:20.960Z,98.14
2018-09-02T02:12:49.978Z,99.00
2018-09-02T02:15:19.041Z,98.13
2018-09-02T02:17:47.996Z,98.98
2018-09-02T02:20:17.098Z,98.93
2018-09-02T02:22:46.065Z,98.92
2018-09-02T02:25:15.031Z,99.15
2018-09-02T02:27:44.102Z,100.00
2018-09-02T02:30:13.175Z,100.00
2018-09-02T02:32:42.146Z,100.00
2018-09-02T02:35:11.201Z,99.89
2018-09-02T02:37:40.147Z,100.00
2018-09-02T02:40:09.242Z,100.00
2018-09-02T02:42:38.247Z,99.98
2018-09-02T02:45:07.449Z,100.00
2018-09-02T02:47:37.608Z,100.00
2018-09-02T02:50:06.715Z,100.00
2018-09-02T02:52:40.870Z,100.00
2018-09-02T02:55:10.297Z,100.00
2018-09-02T02:57:39.279Z,99.87
2018-09-02T03:00:08.357Z,99.98
2018-09-02T03:02:37.423Z,98.86
2018-09-02T03:05:06.675Z,98.89
2018-09-02T03:07:35.625Z,97.90
2018-09-02T03:10:04.585Z,98.01
2018-09-02T03:12:33.549Z,97.24
2018-09-02T03:15:02.566Z,98.46
2018-09-02T03:17:31.534Z,98.35
2018-09-02T03:20:00.535Z,98.10
2018-09-02T03:22:29.537Z,98.30
2018-09-02T03:24:58.552Z,98.38
2018-09-02T03:27:27.539Z,98.34
2018-09-02T03:29:56.535Z,99.41
2018-09-02T03:32:25.548Z,98.60
2018-09-02T03:34:54.502Z,98.21
2018-09-02T03:37:23.528Z,98.79
2018-09-02T03:39:52.469Z,98.51
2018-09-02T03:42:21.540Z,98.56
2018-09-02T03:44:50.580Z,99.04
2018-09-02T03:47:19.626Z,99.84
2018-09-02T03:49:48.665Z,100.00
2018-09-02T03:52:17.620Z,100.00
2018-09-02T03:54:46.694Z,100.00
2018-09-02T03:57:15.697Z,100.00
2018-09-02T03:59:44.702Z,100.00
2018-09-02T04:02:13.680Z,100.00
2018-09-02T04:04:42.718Z,100.00
2018-09-02T04:07:11.798Z,100.00
2018-09-02T04:09:40.808Z,100.00
2018-09-02T04:12:09.907Z,100.00
2018-09-02T04:14:38.924Z,100.00
2018-09-02T04:17:07.992Z,100.00
2018-09-02T04:19:37.013Z,100.00
2018-09-02T04:22:06.064Z,100.00
2018-09-02T04:24:35.095Z,100.00
2018-09-02T04:27:04.166Z,99.86
2018-09-02T04:29:33.254Z,99.43
2018-09-02T04:32:02.200Z,98.75
2018-09-02T04:34:31.364Z,96.97
2018-09-02T04:37:00.338Z,95.84
2018-09-02T04:39:29.336Z,92.23
2018-09-02T04:41:58.305Z,89.54
2018-09-02T04:44:27.309Z,86.59
2018-09-02T04:46:56.469Z,84.33
2018-09-02T04:49:25.525Z,81.19
2018-09-02T04:51:54.484Z,78.20
2018-09-02T04:54:23.539Z,74.45
2018-09-02T04:56:52.645Z,74.17
2018-09-02T04:59:21.685Z,71.91
2018-09-02T05:01:50.708Z,69.51
2018-09-02T05:04:19.755Z,66.22
2018-09-02T05:06:48.805Z,63.29
2018-09-02T05:09:17.841Z,61.56
2018-09-02T05:11:46.892Z,58.10
2018-09-02T05:14:15.963Z,56.39
2018-09-02T05:16:45.043Z,56.90
2018-09-02T05:19:14.004Z,54.96
2018-09-02T05:21:42.955Z,55.78
2018-09-02T05:24:11.997Z,55.67
2018-09-02T05:26:41.021Z,55.53
2018-09-02T05:29:09.981Z,52.66
2018-09-02T05:31:38.981Z,53.23
2018-09-02T05:34:08.069Z,52.81
2018-09-02T05:36:37.104Z,55.23
2018-09-02T05:39:08.746Z,57.01
2018-09-02T05:41:37.778Z,57.67
2018-09-02T05:44:07.097Z,60.75
2018-09-02T05:46:36.041Z,60.86
2018-09-02T05:49:05.073Z,62.15
2018-09-02T05:51:34.426Z,63.65
2018-09-02T05:54:03.525Z,63.07
2018-09-02T05:56:32.648Z,58.84
2018-09-02T05:59:01.618Z,57.05
2018-09-02T06:01:30.621Z,57.19
2018-09-02T06:03:59.601Z,57.61
2018-09-02T06:06:28.653Z,58.94
2018-09-02T06:08:57.695Z,59.70
2018-09-02T06:11:26.668Z,59.79
2018-09-02T06:13:55.735Z,62.83
2018-09-02T06:16:24.746Z,61.72
2018-09-02T06:18:53.719Z,61.43
2018-09-02T06:21:22.758Z,61.25
2018-09-02T06:23:51.789Z,61.21
2018-09-02T06:26:20.768Z,61.93
2018-09-02T06:28:49.745Z,60.24
2018-09-02T06:31:18.769Z,61.25
2018-09-02T06:33:47.837Z,61.14
2018-09-02T06:36:21.820Z,59.94
2018-09-02T06:38:50.835Z,61.19
2018-09-02T06:41:19.898Z,59.29
2018-09-02T06:43:48.962Z,58.38
2018-09-02T06:46:17.937Z,57.25
2018-09-02T06:48:47.032Z,60.98
2018-09-02T06:51:15.988Z,59.06
2018-09-02T06:53:45.089Z,57.17
2018-09-02T06:56:14.105Z,58.98
2018-09-02T06:58:43.222Z,58.69
2018-09-02T07:01:12.150Z,59.59
2018-09-02T07:03:41.363Z,57.28
2018-09-02T07:06:10.352Z,59.10
2018-09-02T07:08:39.368Z,58.48
2018-09-02T07:11:08.344Z,53.85
2018-09-02T07:13:37.398Z,55.28
2018-09-02T07:16:20.855Z,54.63
2018-09-02T07:18:49.917Z,51.86
2018-09-02T07:21:18.968Z,54.08
2018-09-02T07:23:48.017Z,53.47
2018-09-02T07:26:17.039Z,54.17
2018-09-02T07:28:46.126Z,52.92
2018-09-02T07:31:16.178Z,53.35
2018-09-02T07:33:45.274Z,53.74
2018-09-02T07:36:14.283Z,54.86
2018-09-02T07:38:43.423Z,55.81
2018-09-02T07:41:12.500Z,54.88
2018-09-02T07:43:41.630Z,54.37
2018-09-02T07:46:10.638Z,54.18
2018-09-02T07:48:39.862Z,55.87
2018-09-02T07:51:08.965Z,56.72
2018-09-02T07:53:37.982Z,55.02
2018-09-02T07:56:07.046Z,54.86
2018-09-02T07:58:36.093Z,53.27
2018-09-02T08:01:05.060Z,53.24
2018-09-02T08:03:34.020Z,54.84
2018-09-02T08:06:03.052Z,53.72
2018-09-02T08:08:32.134Z,51.95
2018-09-02T08:11:01.068Z,52.68
2018-09-02T08:13:30.137Z,53.71
2018-09-02T08:15:59.175Z,52.72
2018-09-02T08:18:28.186Z,50.10
2018-09-02T08:20:57.227Z,51.97
2018-09-02T08:23:26.951Z,50.85
2018-09-02T08:25:56.890Z,50.56
2018-09-02T08:28:26.019Z,50.33
2018-09-02T08:30:55.055Z,48.96
2018-09-02T08:33:24.044Z,50.53
2018-09-02T08:35:52.988Z,50.57
2018-09-02T08:38:22.016Z,52.22
2018-09-02T08:40:51.041Z,52.14
2018-09-02T08:43:20.068Z,51.34
2018-09-02T08:45:49.142Z,49.66
2018-09-02T08:48:18.092Z,49.55
2018-09-02T08:50:47.096Z,49.73
2018-09-02T08:53:16.054Z,46.94
2018-09-02T08:55:45.016Z,45.35
2018-09-02T08:58:14.011Z,42.86
2018-09-02T09:00:42.964Z,43.86
2018-09-02T09:03:12.012Z,40.73
2018-09-02T09:05:41.027Z,46.12
2018-09-02T09:08:10.253Z,42.55
2018-09-02T09:10:39.186Z,40.35
2018-09-02T09:13:08.221Z,39.73
2018-09-02T09:15:37.296Z,39.09
2018-09-02T09:18:06.388Z,39.80
2018-09-02T09:20:35.373Z,39.71
2018-09-02T09:23:04.343Z,40.52
2018-09-02T09:25:33.397Z,39.63
2018-09-02T09:28:02.370Z,38.60
2018-09-02T09:30:31.421Z,39.86
2018-09-02T09:33:00.452Z,38.63
2018-09-02T09:35:29.484Z,37.89
2018-09-02T09:37:58.493Z,38.26
2018-09-02T09:40:27.581Z,39.11
2018-09-02T09:42:56.822Z,38.76
2018-09-02T09:45:25.921Z,38.56
2018-09-02T09:47:54.899Z,39.06
2018-09-02T09:50:23.939Z,38.10
2018-09-02T09:52:53.039Z,36.32
2018-09-02T09:55:22.164Z,35.99
2018-09-02T09:57:51.452Z,37.01
2018-09-02T10:00:25.661Z,36.34
2018-09-02T10:02:54.767Z,37.08
2018-09-02T10:05:23.853Z,36.29
2018-09-02T10:07:52.891Z,37.19
2018-09-02T10:10:21.960Z,36.18
2018-09-02T10:12:50.953Z,36.71
2018-09-02T10:15:20.138Z,36.43
2018-09-02T10:17:49.157Z,35.13
2018-09-02T10:20:18.190Z,35.30
2018-09-02T10:22:47.265Z,35.76
2018-09-02T10:25:16.244Z,35.04
2018-09-02T10:27:45.384Z,34.53
2018-09-02T10:30:14.457Z,34.41
2018-09-02T10:32:43.629Z,34.51
2018-09-02T10:35:12.579Z,35.04
2018-09-02T10:37:41.733Z,32.60
2018-09-02T10:40:10.705Z,31.20
2018-09-02T10:42:39.739Z,31.51
2018-09-02T10:45:08.774Z,33.03
2018-09-02T10:47:37.875Z,34.54
2018-09-02T10:50:07.541Z,33.04
2018-09-02T10:52:37.145Z,30.76
2018-09-02T10:55:06.361Z,29.37
2018-09-02T10:57:35.355Z,28.42
2018-09-02T11:00:04.361Z,28.90
2018-09-02T11:02:33.401Z,26.01
2018-09-02T11:05:02.448Z,24.92
2018-09-02T11:07:35.008Z,26.05
2018-09-02T11:10:03.997Z,24.96
2018-09-02T11:12:32.960Z,24.66
2018-09-02T11:15:01.986Z,26.05
2018-09-02T11:17:30.945Z,24.16
2018-09-02T11:19:59.921Z,23.35
2018-09-02T11:22:28.883Z,23.16
2018-09-02T11:24:57.969Z,23.01
2018-09-02T11:27:26.964Z,23.05
2018-09-02T11:29:55.917Z,21.32
2018-09-02T11:32:24.944Z,22.50
2018-09-02T11:34:53.948Z,23.43
2018-09-02T11:37:22.924Z,23.15
2018-09-02T11:39:51.920Z,22.36
2018-09-02T11:42:21.009Z,22.75
2018-09-02T11:44:49.961Z,20.86
2018-09-02T11:47:18.912Z,21.48
2018-09-02T11:49:47.916Z,18.99
2018-09-02T11:52:16.886Z,19.96
2018-09-02T11:54:45.860Z,20.65
2018-09-02T11:57:14.948Z,21.71
2018-09-02T11:59:44.024Z,20.54
2018-09-02T12:02:12.976Z,19.84
2018-09-02T12:04:41.953Z,20.97
2018-09-02T12:07:10.911Z,20.79
2018-09-02T12:09:39.864Z,19.93
2018-09-02T12:12:08.824Z,18.91
2018-09-02T12:14:37.890Z,17.71
2018-09-02T12:17:06.873Z,18.43
2018-09-02T12:19:35.841Z,21.12
2018-09-02T12:22:05.353Z,20.08
2018-09-02T12:24:34.439Z,18.38
2018-09-02T12:27:03.452Z,18.79
2018-09-02T12:29:32.562Z,18.19
2018-09-02T12:32:01.717Z,18.38
2018-09-02T12:34:30.736Z,20.15
2018-09-02T12:36:59.692Z,19.37
2018-09-02T12:39:28.635Z,17.84
2018-09-02T12:41:57.644Z,18.03
2018-09-02T12:44:26.600Z,19.68
2018-09-02T12:46:55.564Z,19.75
2018-09-02T12:49:24.600Z,19.96
2018-09-02T12:51:53.911Z,23.19
2018-09-02T12:54:22.910Z,21.87
2018-09-02T12:56:51.873Z,22.12
2018-09-02T12:59:20.834Z,22.05
2018-09-02T13:01:49.856Z,23.55
2018-09-02T13:04:18.848Z,23.98
2018-09-02T13:06:47.862Z,24.22
2018-09-02T13:09:16.970Z,25.18
2018-09-02T13:11:45.980Z,25.12
2018-09-02T13:14:15.021Z,26.06
2018-09-02T13:16:44.122Z,27.38
2018-09-02T13:19:13.113Z,26.25
2018-09-02T13:21:42.103Z,26.52
2018-09-02T13:24:11.105Z,26.14
2018-09-02T13:26:40.290Z,27.21
2018-09-02T13:29:09.316Z,28.41
2018-09-02T13:31:38.438Z,27.74
2018-09-02T13:34:07.420Z,27.46
2018-09-02T13:36:36.493Z,28.06
2018-09-02T13:39:06.858Z,26.83
2018-09-02T13:41:35.868Z,27.65
2018-09-02T13:44:04.961Z,28.65
2018-09-02T13:46:35.981Z,28.78
2018-09-02T13:49:06.006Z,29.73
2018-09-02T13:51:38.246Z,29.24
2018-09-02T13:54:09.379Z,29.51
2018-09-02T13:56:39.997Z,29.72
2018-09-02T13:59:11.008Z,29.57
2018-09-02T14:01:42.468Z,30.35
2018-09-02T14:04:14.377Z,30.46
2018-09-02T14:06:44.267Z,30.73
2018-09-02T14:09:18.973Z,31.67
2018-09-02T14:11:50.001Z,31.34
2018-09-02T14:14:20.847Z,30.53
2018-09-02T14:16:52.649Z,31.46
2018-09-02T14:19:24.395Z,32.46
2018-09-02T14:21:54.182Z,31.68
2018-09-02T14:24:23.956Z,32.98
2018-09-02T14:26:54.557Z,31.85
2018-09-02T14:29:25.661Z,32.40
2018-09-02T14:31:56.318Z,33.20
2018-09-02T14:34:26.040Z,31.73
2018-09-02T14:36:56.884Z,33.11
2018-09-02T14:39:29.345Z,32.93
2018-09-02T14:42:00.333Z,30.85
2018-09-02T14:44:29.377Z,31.67
2018-09-02T14:46:58.392Z,33.22
2018-09-02T14:49:27.397Z,32.58
2018-09-02T14:51:56.413Z,31.81
2018-09-02T14:54:25.384Z,31.93
2018-09-02T14:56:54.390Z,32.30
2018-09-02T14:59:23.437Z,32.34
2018-09-02T15:01:52.456Z,32.63
2018-09-02T15:04:21.477Z,32.02
2018-09-02T15:06:50.472Z,31.62
2018-09-02T15:09:19.452Z,30.71
2018-09-02T15:11:48.428Z,32.61
2018-09-02T15:14:17.462Z,33.37
2018-09-02T15:16:46.675Z,31.42
2018-09-02T15:19:15.691Z,32.46
2018-09-02T15:21:44.781Z,33.28
2018-09-02T15:24:13.809Z,32.09
2018-09-02T15:26:42.841Z,32.95
2018-09-02T15:29:11.881Z,32.54
2018-09-02T15:31:40.850Z,32.24
2018-09-02T15:34:09.821Z,34.31
2018-09-02T15:36:38.864Z,32.90
2018-09-02T15:39:09.387Z,33.32
2018-09-02T15:41:38.763Z,33.94
2018-09-02T15:44:07.860Z,34.39
2018-09-02T15:46:36.891Z,34.21
2018-09-02T15:49:05.991Z,34.06
2018-09-02T15:51:35.000Z,34.42
2018-09-02T15:54:04.006Z,34.44
2018-09-02T15:56:33.080Z,35.89
2018-09-02T15:59:02.066Z,35.04
2018-09-02T16:01:31.233Z,36.66
2018-09-02T16:04:00.415Z,36.50
2018-09-02T16:06:29.527Z,36.91
2018-09-02T16:08:58.565Z,37.03
2018-09-02T16:11:27.724Z,38.44
2018-09-02T16:13:57.419Z,38.93
2018-09-02T16:16:27.217Z,38.45
2018-09-02T16:18:56.340Z,38.69
2018-09-02T16:21:25.393Z,39.04
2018-09-02T16:23:54.352Z,38.87
2018-09-02T16:26:23.485Z,39.72
2018-09-02T16:28:52.520Z,41.30
2018-09-02T16:31:21.645Z,42.07
2018-09-02T16:33:50.709Z,43.21
2018-09-02T16:36:19.763Z,45.34
2018-09-02T16:38:48.782Z,46.23
2018-09-02T16:41:17.899Z,49.51
2018-09-02T16:43:46.869Z,51.13
2018-09-02T16:46:15.817Z,52.58
2018-09-02T16:48:44.994Z,52.86
2018-09-02T16:51:14.006Z,55.24
2018-09-02T16:53:43.010Z,56.29
2018-09-02T16:56:12.079Z,55.57
2018-09-02T16:58:41.224Z,56.13
2018-09-02T17:01:10.357Z,56.56
2018-09-02T17:03:43.094Z,56.76
2018-09-02T17:06:12.216Z,58.17
2018-09-02T17:08:41.124Z,58.84
2018-09-02T17:11:10.204Z,59.71
2018-09-02T17:13:39.185Z,61.31
2018-09-02T17:16:08.189Z,62.02
2018-09-02T17:18:37.169Z,61.38
2018-09-02T17:21:06.181Z,62.27
2018-09-02T17:23:35.167Z,62.46
2018-09-02T17:26:04.127Z,62.31
2018-09-02T17:28:33.233Z,63.54
2018-09-02T17:31:02.265Z,63.35
2018-09-02T17:33:31.241Z,63.46
2018-09-02T17:36:00.285Z,64.04
2018-09-02T17:38:29.291Z,63.89
2018-09-02T17:40:58.368Z,62.35
2018-09-02T17:43:27.393Z,63.96
2018-09-02T17:45:56.537Z,63.53
2018-09-02T17:48:25.581Z,64.96
2018-09-02T17:50:54.562Z,62.95
2018-09-02T17:53:23.678Z,63.07
2018-09-02T17:55:52.745Z,63.66
2018-09-02T17:58:21.663Z,64.27
2018-09-02T18:00:52.683Z,64.33
2018-09-02T18:03:27.997Z,63.18
2018-09-02T18:05:56.992Z,65.59
2018-09-02T18:08:26.045Z,65.80
2018-09-02T18:10:55.172Z,65.88
2018-09-02T18:13:24.135Z,66.54
2018-09-02T18:15:53.130Z,66.25
2018-09-02T18:18:22.122Z,66.56
2018-09-02T18:20:51.145Z,67.20
2018-09-02T18:23:20.140Z,67.91
2018-09-02T18:25:49.148Z,67.79
2018-09-02T18:28:20.978Z,67.96
2018-09-02T18:30:50.006Z,68.22
2018-09-02T18:33:18.957Z,67.40
2018-09-02T18:35:48.045Z,66.49
2018-09-02T18:38:17.069Z,65.83
2018-09-02T18:40:46.028Z,66.86
2018-09-02T18:43:15.110Z,67.12
2018-09-02T18:45:44.069Z,67.78
2018-09-02T18:48:13.113Z,66.22
2018-09-02T18:50:42.122Z,66.60
2018-09-02T18:53:11.209Z,66.26
2018-09-02T18:55:40.281Z,67.40
2018-09-02T18:58:09.350Z,68.47
2018-09-02T19:00:38.367Z,68.76
2018-09-02T19:03:08.179Z,67.78
2018-09-02T19:05:37.317Z,68.58
2018-09-02T19:08:06.340Z,68.32
2018-09-02T19:10:35.520Z,68.03
2018-09-02T19:13:06.231Z,67.90
2018-09-02T19:15:37.261Z,68.58
2018-09-02T19:18:07.206Z,67.50
2018-09-02T19:20:36.939Z,67.37
2018-09-02T19:23:08.204Z,69.15
2018-09-02T19:25:37.957Z,69.65
2018-09-02T19:28:09.776Z,68.95
2018-09-02T19:30:40.701Z,67.98
2018-09-02T19:33:12.586Z,69.04
2018-09-02T19:35:42.278Z,69.09
2018-09-02T19:38:16.125Z,69.60
2018-09-02T19:40:46.656Z,69.12
2018-09-02T19:43:19.304Z,69.21
2018-09-02T19:45:49.303Z,69.49
2018-09-02T19:48:19.302Z,69.50
2018-09-02T19:50:50.015Z,69.98
2018-09-02T19:53:20.369Z,68.83
2018-09-02T19:55:55.644Z,68.91
2018-09-02T19:58:25.942Z,69.24
2018-09-02T20:00:56.008Z,66.86
2018-09-02T20:03:26.908Z,65.61
2018-09-02T20:05:56.560Z,64.83
2018-09-02T20:08:26.160Z,66.67
2018-09-02T20:10:56.089Z,65.79
2018-09-02T20:13:25.949Z,66.42
2018-09-02T20:15:55.360Z,66.79
2018-09-02T20:18:26.006Z,65.87
2018-09-02T20:20:58.495Z,65.47
2018-09-02T20:23:28.898Z,65.66
2018-09-02T20:26:00.344Z,65.97
2018-09-02T20:28:31.794Z,66.25
2018-09-02T20:31:01.940Z,65.67
2018-09-02T20:33:30.962Z,66.24
2018-09-02T20:36:00.204Z,66.89
2018-09-02T20:38:29.253Z,67.43
2018-09-02T20:40:58.236Z,65.95
2018-09-02T20:43:27.217Z,66.12
2018-09-02T20:45:56.243Z,67.00
2018-09-02T20:48:25.260Z,65.20
2018-09-02T20:50:54.233Z,66.03
2018-09-02T20:53:23.333Z,66.83
2018-09-02T20:55:52.338Z,65.93
2018-09-02T20:58:21.284Z,65.21
2018-09-02T21:00:50.334Z,66.65
2018-09-02T21:03:19.337Z,66.21
2018-09-02T21:05:48.640Z,67.19
2018-09-02T21:08:17.636Z,67.09
2018-09-02T21:10:46.660Z,67.33
2018-09-02T21:13:15.756Z,68.59
2018-09-02T21:15:44.817Z,69.13
2018-09-02T21:18:13.804Z,69.63
2018-09-02T21:20:42.789Z,69.08
2018-09-02T21:23:11.825Z,70.42
2018-09-02T21:25:40.918Z,70.58
2018-09-02T21:28:10.020Z,70.67
2018-09-02T21:30:38.985Z,71.85
2018-09-02T21:33:08.008Z,71.79
2018-09-02T21:35:36.992Z,72.53
2018-09-02T21:38:06.031Z,71.58
2018-09-02T21:40:35.281Z,72.85
2018-09-02T21:43:04.292Z,73.95
2018-09-02T21:45:33.393Z,72.42
2018-09-02T21:48:02.365Z,72.11
2018-09-02T21:50:31.445Z,71.99
2018-09-02T21:53:00.544Z,71.80
2018-09-02T21:55:29.602Z,73.60
2018-09-02T21:57:58.637Z,73.05
2018-09-02T22:00:27.631Z,72.51
2018-09-02T22:02:56.664Z,73.10
2018-09-02T22:05:25.733Z,73.06
2018-09-02T22:07:54.925Z,71.50
2018-09-02T22:10:23.916Z,71.70
2018-09-02T22:12:52.888Z,71.22
2018-09-02T22:15:21.932Z,72.30
2018-09-02T22:17:51.061Z,72.23
2018-09-02T22:20:20.077Z,70.93
2018-09-02T22:22:49.036Z,72.02
2018-09-02T22:25:18.065Z,71.97
2018-09-02T22:27:47.093Z,72.65
2018-09-02T22:30:16.137Z,73.37
2018-09-02T22:32:45.118Z,74.07
2018-09-02T22:35:14.146Z,73.59
2018-09-02T22:37:43.204Z,74.49
2018-09-02T22:40:12.257Z,75.31
2018-09-02T22:42:41.358Z,74.78
2018-09-02T22:45:10.381Z,76.18
2018-09-02T22:47:39.452Z,76.58
2018-09-02T22:50:08.645Z,76.42
2018-09-02T22:52:37.633Z,76.27
2018-09-02T22:55:06.624Z,76.76
2018-09-02T22:57:35.596Z,76.04
2018-09-02T23:00:04.760Z,76.62
2018-09-02T23:02:33.774Z,76.97
2018-09-02T23:05:02.747Z,77.90
2018-09-02T23:07:31.773Z,77.83
2018-09-02T23:10:01.102Z,79.14
2018-09-02T23:12:30.212Z,78.73
2018-09-02T23:14:59.333Z,79.65
2018-09-02T23:17:28.432Z,79.42
2018-09-02T23:19:57.500Z,79.65
2018-09-02T23:22:26.471Z,79.56
2018-09-02T23:24:55.645Z,81.01
2018-09-02T23:27:24.647Z,80.42
2018-09-02T23:29:53.629Z,81.58
2018-09-02T23:32:22.644Z,81.66
2018-09-02T23:34:51.749Z,81.60
2018-09-02T23:37:20.773Z,81.82
2018-09-02T23:39:49.798Z,81.76
2018-09-02T23:42:18.822Z,81.87
2018-09-02T23:44:47.812Z,82.29
2018-09-02T23:47:16.780Z,83.03
2018-09-02T23:49:45.789Z,82.47
2018-09-02T23:52:14.872Z,81.87
2018-09-02T23:54:43.829Z,82.15
2018-09-02T23:57:12.791Z,82.83
2018-09-02T23:59:41.824Z,83.13
